createdAt,value
2022-11-08T00:01:34.642Z,3.13
2022-11-08T00:04:20.823Z,2.17
2022-11-08T00:07:24.775Z,2.95
2022-11-08T00:10:28.824Z,2.30
2022-11-08T00:13:32.723Z,1.95
2022-11-08T00:16:18.259Z,2.80
2022-11-08T00:19:03.877Z,2.40
2022-11-08T00:21:49.490Z,2.80
2022-11-08T00:24:34.911Z,2.58
2022-11-08T00:27:22.718Z,2.20
2022-11-08T00:30:09.158Z,2.13
2022-11-08T00:32:54.427Z,2.42
2022-11-08T00:35:40.156Z,1.80
2022-11-08T00:38:26.311Z,1.88
2022-11-08T00:41:12.358Z,2.38
2022-11-08T00:43:58.315Z,2.92
2022-11-08T00:46:44.026Z,2.20
2022-11-08T00:49:30.179Z,2.40
2022-11-08T00:52:15.640Z,1.83
2022-11-08T00:55:01.163Z,2.20
2022-11-08T00:57:59.016Z,2.13
2022-11-08T01:00:46.165Z,2.30
2022-11-08T01:03:31.534Z,2.05
2022-11-08T01:06:18.989Z,1.70
2022-11-08T01:09:05.408Z,2.17
2022-11-08T01:11:51.222Z,2.22
2022-11-08T01:14:37.265Z,1.60
2022-11-08T01:17:22.891Z,1.75
2022-11-08T01:20:08.811Z,1.42
2022-11-08T01:22:54.296Z,1.88
2022-11-08T01:25:44.835Z,1.90
2022-11-08T01:28:30.365Z,1.92
2022-11-08T01:31:18.660Z,2.00
2022-11-08T01:34:04.458Z,1.70
2022-11-08T01:36:50.380Z,1.92
2022-11-08T01:39:35.812Z,1.73
2022-11-08T01:42:29.499Z,1.40
2022-11-08T01:45:15.200Z,1.83
2022-11-08T01:48:00.728Z,1.67
2022-11-08T01:50:46.641Z,1.83
2022-11-08T01:53:32.351Z,1.80
2022-11-08T01:56:19.206Z,1.75
2022-11-08T01:59:07.898Z,1.70
2022-11-08T02:01:53.802Z,1.75
2022-11-08T02:04:41.830Z,1.90
2022-11-08T02:07:30.242Z,2.58
2022-11-08T02:10:16.011Z,1.75
2022-11-08T02:13:05.151Z,1.98
2022-11-08T02:15:51.636Z,1.38
2022-11-08T02:18:37.397Z,2.20
2022-11-08T02:21:47.160Z,1.77
2022-11-08T02:24:32.639Z,1.80
2022-11-08T02:27:18.267Z,1.50
2022-11-08T02:30:04.451Z,1.80
2022-11-08T02:32:50.355Z,1.60
2022-11-08T02:35:36.071Z,1.45
2022-11-08T02:38:22.614Z,1.60
2022-11-08T02:41:08.471Z,1.77
2022-11-08T02:43:54.250Z,1.70
2022-11-08T02:46:39.609Z,1.38
2022-11-08T02:49:25.299Z,1.63
2022-11-08T02:52:10.825Z,1.40
2022-11-08T02:54:56.176Z,1.67
2022-11-08T02:57:41.524Z,2.10
2022-11-08T03:00:27.096Z,1.70
2022-11-08T03:03:13.069Z,1.30
2022-11-08T03:05:58.386Z,1.70
2022-11-08T03:08:43.862Z,1.52
2022-11-08T03:11:29.284Z,1.63
2022-11-08T03:14:14.876Z,1.92
2022-11-08T03:17:00.482Z,1.52
2022-11-08T03:19:45.756Z,1.73
2022-11-08T03:22:31.285Z,1.25
2022-11-08T03:25:16.756Z,1.48
2022-11-08T03:28:06.213Z,1.70
2022-11-08T03:30:53.138Z,1.35
2022-11-08T03:33:38.502Z,1.48
2022-11-08T03:36:23.876Z,1.55
2022-11-08T03:39:11.075Z,1.30
2022-11-08T03:41:56.975Z,2.00
2022-11-08T03:44:42.717Z,1.60
2022-11-08T03:47:28.345Z,1.40
2022-11-08T03:50:15.474Z,1.30
2022-11-08T03:53:00.990Z,1.33
2022-11-08T03:55:46.515Z,1.75
2022-11-08T03:58:31.885Z,1.77
2022-11-08T04:01:17.502Z,1.52
2022-11-08T04:04:03.089Z,1.38
2022-11-08T04:06:48.876Z,1.48
2022-11-08T04:09:34.300Z,1.48
2022-11-08T04:12:38.130Z,1.58
2022-11-08T04:15:24.179Z,1.58
2022-11-08T04:18:28.134Z,1.73
2022-11-08T04:21:21.680Z,1.35
2022-11-08T04:24:07.637Z,1.50
2022-11-08T04:26:53.594Z,1.40
2022-11-08T04:29:39.108Z,1.35
2022-11-08T04:32:24.737Z,1.20
2022-11-08T04:35:10.319Z,1.40
2022-11-08T04:38:01.092Z,1.30
2022-11-08T04:40:46.735Z,1.30
2022-11-08T04:43:33.068Z,1.48
2022-11-08T04:46:24.435Z,1.20
2022-11-08T04:49:09.843Z,0.95
2022-11-08T04:51:55.353Z,1.48
2022-11-08T04:54:44.602Z,1.30
2022-11-08T04:57:30.475Z,1.20
2022-11-08T05:00:17.313Z,1.20
2022-11-08T05:03:03.203Z,1.60
2022-11-08T05:05:48.772Z,1.25
2022-11-08T05:08:34.723Z,1.20
2022-11-08T05:11:23.167Z,1.70
2022-11-08T05:14:08.804Z,1.27
2022-11-08T05:16:54.606Z,1.38
2022-11-08T05:19:58.541Z,1.25
2022-11-08T05:23:02.481Z,1.30
2022-11-08T05:25:47.845Z,1.23
2022-11-08T05:28:33.837Z,1.60
2022-11-08T05:31:19.286Z,1.60
2022-11-08T05:34:04.825Z,1.30
2022-11-08T05:36:50.314Z,2.03
2022-11-08T05:39:35.852Z,1.30
2022-11-08T05:42:21.358Z,1.63
2022-11-08T05:45:09.433Z,1.90
2022-11-08T05:47:55.911Z,1.50
2022-11-08T05:50:41.414Z,1.80
2022-11-08T05:53:30.346Z,1.75
2022-11-08T05:56:16.517Z,1.73
2022-11-08T05:59:02.302Z,1.48
2022-11-08T06:01:48.286Z,1.92
2022-11-08T06:04:33.677Z,1.83
2022-11-08T06:07:19.114Z,1.38
2022-11-08T06:10:05.895Z,1.60
2022-11-08T06:12:51.990Z,1.38
2022-11-08T06:15:37.729Z,1.52
2022-11-08T06:18:23.402Z,1.55
2022-11-08T06:21:12.458Z,1.25
2022-11-08T06:23:59.371Z,1.20
2022-11-08T06:26:45.308Z,1.40
2022-11-08T06:29:30.960Z,1.20
2022-11-08T06:32:16.384Z,1.00
2022-11-08T06:35:01.868Z,1.20
2022-11-08T06:37:47.601Z,1.38
2022-11-08T06:40:33.564Z,1.38
2022-11-08T06:43:20.248Z,1.40
2022-11-08T06:46:07.572Z,1.40
2022-11-08T06:48:53.005Z,1.17
2022-11-08T06:51:38.445Z,1.35
2022-11-08T06:54:26.062Z,1.20
2022-11-08T06:57:12.626Z,1.30
2022-11-08T06:59:58.482Z,1.23
2022-11-08T07:02:44.503Z,1.30
2022-11-08T07:05:32.486Z,1.20
2022-11-08T07:08:23.342Z,1.60
2022-11-08T07:11:10.836Z,1.70
2022-11-08T07:13:56.312Z,1.63
2022-11-08T07:16:42.239Z,1.38
2022-11-08T07:19:27.755Z,1.10
2022-11-08T07:22:13.235Z,1.00
2022-11-08T07:24:58.815Z,1.33
2022-11-08T07:27:44.345Z,1.58
2022-11-08T07:30:30.968Z,1.27
2022-11-08T07:33:16.933Z,1.08
2022-11-08T07:36:03.475Z,1.08
2022-11-08T07:38:49.098Z,1.10
2022-11-08T07:41:35.105Z,1.30
2022-11-08T07:44:20.911Z,1.00
2022-11-08T07:47:06.429Z,1.42
2022-11-08T07:49:51.824Z,1.10
2022-11-08T07:52:37.313Z,1.00
2022-11-08T07:55:23.070Z,1.00
2022-11-08T07:58:10.813Z,1.20
2022-11-08T08:01:00.536Z,1.33
2022-11-08T08:03:46.105Z,1.02
2022-11-08T08:06:31.567Z,1.23
2022-11-08T08:09:17.051Z,1.10
2022-11-08T08:12:03.072Z,1.08
2022-11-08T08:14:48.787Z,0.90
2022-11-08T08:17:34.588Z,1.00
2022-11-08T08:20:20.161Z,1.10
2022-11-08T08:23:06.764Z,1.10
2022-11-08T08:25:52.910Z,1.80
2022-11-08T08:28:38.682Z,1.38
2022-11-08T08:31:24.199Z,1.17
2022-11-08T08:34:09.758Z,1.33
2022-11-08T08:36:55.257Z,1.30
2022-11-08T08:39:41.497Z,1.05
2022-11-08T08:42:27.007Z,1.20
2022-11-08T08:45:15.099Z,1.00
2022-11-08T08:48:02.116Z,1.33
2022-11-08T08:50:48.362Z,1.40
2022-11-08T08:53:34.322Z,1.13
2022-11-08T08:56:20.127Z,1.23
2022-11-08T09:02:12.265Z,1.20
2022-11-08T09:04:57.739Z,1.30
2022-11-08T09:07:43.829Z,1.15
2022-11-08T09:10:29.726Z,1.10
2022-11-08T09:13:16.266Z,1.00
2022-11-08T09:16:03.658Z,1.23
2022-11-08T09:18:49.428Z,1.00
2022-11-08T09:21:34.751Z,1.30
2022-11-08T09:24:20.287Z,1.30
2022-11-08T09:27:06.044Z,1.05
2022-11-08T09:29:51.724Z,1.20
2022-11-08T09:32:59.614Z,1.20
2022-11-08T09:35:43.174Z,0.88
2022-11-08T09:38:29.671Z,1.10
2022-11-08T09:41:39.596Z,0.80
2022-11-08T09:44:49.992Z,1.27
2022-11-08T09:47:45.705Z,1.00
2022-11-08T09:50:39.593Z,1.20
2022-11-08T09:53:35.381Z,1.45
2022-11-08T09:56:29.708Z,1.15
2022-11-08T09:59:36.557Z,1.10
2022-11-08T10:02:24.204Z,1.15
2022-11-08T10:05:16.037Z,1.00
2022-11-08T10:08:19.215Z,0.98
2022-11-08T10:11:22.888Z,1.48
2022-11-08T10:14:25.088Z,1.23
2022-11-08T10:17:32.523Z,1.20
2022-11-08T10:20:42.574Z,1.48
2022-11-08T10:23:48.374Z,1.10
2022-11-08T10:26:45.243Z,1.00
2022-11-08T10:29:40.406Z,1.30
2022-11-08T10:32:26.121Z,1.13
2022-11-08T10:35:11.853Z,1.08
2022-11-08T10:37:59.872Z,1.23
2022-11-08T10:40:51.528Z,1.20
2022-11-08T10:43:53.539Z,0.88
2022-11-08T10:46:45.975Z,0.90
2022-11-08T10:49:40.167Z,1.10
2022-11-08T10:52:34.991Z,1.38
2022-11-08T10:55:33.636Z,1.25
2022-11-08T10:58:31.528Z,1.20
2022-11-08T11:01:20.272Z,1.10
2022-11-08T11:04:24.902Z,1.42
2022-11-08T11:07:27.544Z,1.10
2022-11-08T11:10:26.785Z,1.23
2022-11-08T11:13:14.436Z,1.30
2022-11-08T11:16:05.006Z,0.98
2022-11-08T11:18:50.920Z,1.30
2022-11-08T11:21:39.898Z,1.40
2022-11-08T11:24:26.069Z,0.98
2022-11-08T11:27:36.308Z,0.90
2022-11-08T11:30:34.381Z,1.20
2022-11-08T11:33:26.903Z,1.08
2022-11-08T11:36:18.860Z,1.30
2022-11-08T11:39:33.282Z,1.58
2022-11-08T11:42:45.271Z,1.02
2022-11-08T11:45:46.894Z,1.10
2022-11-08T11:48:39.890Z,1.42
2022-11-08T11:51:29.414Z,1.58
2022-11-08T11:54:16.496Z,1.10
2022-11-08T11:57:10.510Z,1.00
2022-11-08T12:00:11.821Z,1.30
2022-11-08T12:03:12.403Z,1.02
2022-11-08T12:06:12.396Z,1.13
2022-11-08T12:09:25.973Z,0.90
2022-11-08T12:12:36.760Z,0.90
2022-11-08T12:15:49.195Z,1.15
2022-11-08T12:18:44.083Z,1.10
2022-11-08T12:21:50.829Z,1.23
2022-11-08T12:25:11.200Z,1.27
2022-11-08T12:28:11.860Z,1.00
2022-11-08T12:31:22.491Z,0.80
2022-11-08T12:34:20.128Z,1.00
2022-11-08T12:37:08.780Z,1.20
2022-11-08T12:40:00.653Z,0.98
2022-11-08T12:43:07.603Z,1.10
2022-11-08T12:46:13.614Z,0.90
2022-11-08T12:49:40.950Z,1.20
2022-11-08T12:52:49.106Z,1.65
2022-11-08T12:55:41.526Z,1.05
2022-11-08T12:58:30.390Z,1.98
2022-11-08T13:01:21.420Z,1.30
2022-11-08T13:04:20.019Z,0.98
2022-11-08T13:07:19.269Z,1.10
2022-11-08T13:10:12.398Z,0.98
2022-11-08T13:13:16.848Z,1.17
2022-11-08T13:16:07.483Z,1.20
2022-11-08T13:18:56.415Z,0.93
2022-11-08T13:21:43.147Z,1.20
2022-11-08T13:24:48.813Z,0.98
2022-11-08T13:27:52.919Z,1.00
2022-11-08T13:30:39.849Z,1.20
2022-11-08T13:33:31.717Z,1.10
2022-11-08T13:36:32.377Z,0.90
2022-11-08T13:39:18.004Z,0.90
2022-11-08T13:42:15.149Z,1.20
2022-11-08T13:45:23.943Z,1.27
2022-11-08T13:48:25.165Z,0.88
2022-11-08T13:51:26.047Z,1.33
2022-11-08T13:54:23.629Z,1.20
2022-11-08T13:57:18.731Z,1.63
2022-11-08T14:00:09.044Z,1.30
2022-11-08T14:02:57.539Z,1.10
2022-11-08T14:05:47.998Z,1.10
2022-11-08T14:09:05.542Z,0.98
2022-11-08T14:12:04.417Z,1.05
2022-11-08T14:15:00.152Z,0.95
2022-11-08T14:17:55.459Z,1.05
2022-11-08T14:20:46.403Z,1.35
2022-11-08T14:23:39.164Z,1.00
2022-11-08T14:26:25.498Z,0.90
2022-11-08T14:29:17.276Z,0.73
2022-11-08T14:32:06.575Z,1.05
2022-11-08T14:34:52.490Z,1.27
2022-11-08T14:37:38.560Z,0.80
2022-11-08T14:40:27.946Z,1.13
2022-11-08T14:43:13.863Z,1.08
2022-11-08T14:46:10.290Z,0.82
2022-11-08T14:48:56.962Z,0.93
2022-11-08T14:51:43.548Z,1.02
2022-11-08T14:54:39.260Z,1.17
2022-11-08T14:57:35.594Z,1.30
2022-11-08T15:00:24.735Z,1.38
2022-11-08T15:03:19.272Z,1.00
2022-11-08T15:06:13.599Z,1.00
2022-11-08T15:09:01.575Z,0.93
2022-11-08T15:11:53.138Z,1.00
2022-11-08T15:14:47.989Z,1.13
2022-11-08T15:17:39.466Z,1.40
2022-11-08T15:20:25.886Z,0.88
2022-11-08T15:23:26.804Z,1.10
2022-11-08T15:26:34.095Z,1.10
2022-11-08T15:29:21.438Z,0.80
2022-11-08T15:32:19.003Z,1.45
2022-11-08T15:35:06.601Z,1.33
2022-11-08T15:37:58.743Z,1.00
2022-11-08T15:40:56.551Z,0.98
2022-11-08T15:43:42.247Z,0.90
2022-11-08T15:46:38.186Z,1.25
2022-11-08T15:49:28.580Z,0.90
2022-11-08T15:52:17.999Z,0.98
2022-11-08T15:55:07.395Z,0.70
2022-11-08T15:57:53.954Z,1.05
2022-11-08T16:00:45.345Z,0.93
2022-11-08T16:03:31.269Z,0.73
2022-11-08T16:06:16.970Z,0.93
2022-11-08T16:09:02.371Z,1.00
2022-11-08T16:11:48.698Z,0.90
2022-11-08T16:14:34.584Z,1.15
2022-11-08T16:17:20.208Z,1.10
2022-11-08T16:20:27.881Z,1.23
2022-11-08T16:23:13.814Z,1.17
2022-11-08T16:26:00.926Z,0.90
2022-11-08T16:28:47.166Z,1.15
2022-11-08T16:31:33.108Z,1.02
2022-11-08T16:34:19.387Z,1.00
2022-11-08T16:37:05.066Z,1.02
2022-11-08T16:39:50.705Z,1.10
2022-11-08T16:42:36.288Z,1.00
2022-11-08T16:45:43.529Z,1.05
2022-11-08T16:48:28.024Z,1.20
2022-11-08T16:51:19.051Z,1.40
2022-11-08T16:54:19.102Z,1.02
2022-11-08T16:57:28.376Z,0.95
2022-11-08T17:00:13.492Z,1.00
2022-11-08T17:02:58.893Z,0.93
2022-11-08T17:05:44.683Z,1.10
2022-11-08T17:08:30.677Z,1.20
2022-11-08T17:11:19.691Z,0.98
2022-11-08T17:14:05.418Z,1.00
2022-11-08T17:16:53.702Z,1.30
2022-11-08T17:19:39.595Z,1.00
2022-11-08T17:22:25.283Z,1.25
2022-11-08T17:25:14.652Z,1.00
2022-11-08T17:28:00.211Z,1.25
2022-11-08T17:30:46.233Z,1.30
2022-11-08T17:33:31.813Z,1.40
2022-11-08T17:36:17.370Z,1.40
2022-11-08T17:39:03.288Z,1.70
2022-11-08T17:41:49.046Z,1.40
2022-11-08T17:44:34.277Z,1.65
2022-11-08T17:47:20.389Z,1.50
2022-11-08T17:50:07.181Z,1.58
2022-11-08T17:52:54.666Z,1.70
2022-11-08T17:55:40.921Z,1.50
2022-11-08T17:58:27.579Z,1.60
2022-11-08T18:01:13.658Z,1.30
2022-11-08T18:03:59.522Z,1.52
2022-11-08T18:06:45.002Z,1.90
2022-11-08T18:09:37.580Z,1.50
2022-11-08T18:12:28.016Z,1.58
2022-11-08T18:15:13.612Z,1.63
2022-11-08T18:17:59.272Z,1.48
2022-11-08T18:20:47.458Z,1.65
2022-11-08T18:23:33.901Z,1.45
2022-11-08T18:26:19.758Z,1.58
2022-11-08T18:29:06.623Z,1.40
2022-11-08T18:31:52.366Z,1.30
2022-11-08T18:34:37.776Z,1.25
2022-11-08T18:37:23.457Z,1.55
2022-11-08T18:40:11.206Z,1.42
2022-11-08T18:42:56.728Z,1.50
2022-11-08T18:45:42.850Z,1.58
2022-11-08T18:48:28.967Z,1.40
2022-11-08T18:51:16.116Z,1.60
2022-11-08T18:54:01.894Z,1.30
2022-11-08T18:56:47.723Z,1.30
2022-11-08T18:59:33.502Z,1.10
2022-11-08T19:02:20.465Z,1.42
2022-11-08T19:05:06.392Z,1.15
2022-11-08T19:07:51.972Z,1.60
2022-11-08T19:10:37.387Z,1.00
2022-11-08T19:13:24.892Z,1.33
2022-11-08T19:16:19.317Z,1.20
2022-11-08T19:19:04.914Z,1.02
2022-11-08T19:21:50.971Z,1.30
2022-11-08T19:24:36.527Z,1.35
2022-11-08T19:27:23.162Z,1.20
2022-11-08T19:30:09.039Z,1.20
2022-11-08T19:32:54.831Z,1.20
2022-11-08T19:35:40.511Z,1.13
2022-11-08T19:38:26.081Z,1.10
2022-11-08T19:41:14.397Z,1.33
2022-11-08T19:44:00.551Z,1.20
2022-11-08T19:46:46.256Z,1.17
2022-11-08T19:49:31.907Z,1.30
2022-11-08T19:52:17.860Z,1.20
2022-11-08T19:55:03.335Z,1.10
2022-11-08T19:57:49.223Z,1.60
2022-11-08T20:00:34.510Z,1.33
2022-11-08T20:03:20.174Z,1.15
2022-11-08T20:06:07.343Z,1.35
2022-11-08T20:08:54.391Z,1.23
2022-11-08T20:11:41.551Z,1.20
2022-11-08T20:14:27.490Z,0.80
2022-11-08T20:17:12.866Z,1.13
2022-11-08T20:19:58.320Z,1.25
2022-11-08T20:22:47.923Z,1.05
2022-11-08T20:25:34.941Z,1.15
2022-11-08T20:28:21.020Z,1.30
2022-11-08T20:31:10.599Z,1.13
2022-11-08T20:33:56.683Z,1.25
2022-11-08T20:36:44.154Z,1.20
2022-11-08T20:39:30.884Z,0.75
2022-11-08T20:42:20.827Z,1.05
2022-11-08T20:45:13.557Z,1.20
2022-11-08T20:48:02.704Z,1.00
2022-11-08T20:50:48.481Z,1.55
2022-11-08T20:53:37.026Z,1.77
2022-11-08T20:56:23.917Z,1.92
2022-11-08T20:59:09.968Z,1.30
2022-11-08T21:01:56.106Z,1.58
2022-11-08T21:04:41.753Z,1.17
2022-11-08T21:10:42.647Z,1.20
2022-11-08T21:13:35.596Z,1.25
2022-11-08T21:16:53.141Z,1.25
2022-11-08T21:19:26.769Z,1.25
2022-11-08T21:22:15.150Z,1.27
2022-11-08T21:25:00.953Z,1.30
2022-11-08T21:27:46.428Z,1.25
2022-11-08T21:30:32.195Z,1.23
2022-11-08T21:33:18.259Z,1.25
2022-11-08T21:36:04.632Z,1.65
2022-11-08T21:38:50.408Z,1.20
2022-11-08T21:41:35.777Z,1.83
2022-11-08T21:44:21.334Z,1.50
2022-11-08T21:47:06.842Z,1.45
2022-11-08T21:49:52.916Z,1.52
2022-11-08T21:52:38.545Z,1.65
2022-11-08T21:55:23.981Z,1.40
2022-11-08T21:58:09.645Z,1.63
2022-11-08T22:00:55.540Z,1.23
2022-11-08T22:03:40.988Z,0.98
2022-11-08T22:06:27.608Z,1.13
2022-11-08T22:09:13.060Z,1.63
2022-11-08T22:11:58.770Z,1.42
2022-11-08T22:14:44.682Z,1.52
2022-11-08T22:17:30.146Z,1.50
2022-11-08T22:20:15.689Z,1.48
2022-11-08T22:23:04.932Z,1.35
2022-11-08T22:25:53.495Z,1.42
2022-11-08T22:28:39.200Z,1.55
2022-11-08T22:31:24.840Z,1.90
2022-11-08T22:34:11.126Z,1.85
2022-11-08T22:36:57.024Z,1.30
2022-11-08T22:39:42.559Z,1.40
2022-11-08T22:42:28.027Z,1.20
2022-11-08T22:45:13.531Z,1.50
2022-11-08T22:47:59.053Z,1.48
2022-11-08T22:50:44.611Z,1.30
2022-11-08T22:53:30.449Z,1.40
2022-11-08T22:56:15.970Z,1.55
2022-11-08T22:59:02.499Z,1.77
2022-11-08T23:01:47.833Z,1.38
2022-11-08T23:04:33.605Z,1.67
2022-11-08T23:07:19.374Z,1.70
2022-11-08T23:10:05.138Z,1.75
2022-11-08T23:13:09.880Z,1.42
2022-11-08T23:16:21.953Z,1.50
2022-11-08T23:19:28.755Z,1.55
2022-11-08T23:22:35.262Z,1.50
2022-11-08T23:25:20.706Z,1.50
2022-11-08T23:28:24.440Z,1.20
2022-11-08T23:31:35.352Z,1.70
2022-11-08T23:34:21.127Z,1.48
2022-11-08T23:37:06.787Z,1.23
2022-11-08T23:40:10.843Z,1.40
2022-11-08T23:43:35.407Z,1.40
2022-11-08T23:46:20.807Z,1.25
2022-11-08T23:49:06.508Z,1.27
2022-11-08T23:51:52.550Z,1.45
2022-11-08T23:54:38.276Z,1.50
2022-11-08T23:57:23.599Z,1.38
